sensor_id;sensor_type;location;lat;lon;timestamp;pressure;altitude;pressure_sealevel;temperature;humidity
25869;BME280;13688;53.154;18.136;2024-03-06T00:03:48;101311.25;;;3.61;100.00
25869;BME280;13688;53.154;18.136;2024-03-06T00:09:11;101299.81;;;3.59;100.00
25869;BME280;13688;53.154;18.136;2024-03-06T00:14:35;101311.31;;;3.60;100.00
25869;BME280;13688;53.154;18.136;2024-03-06T00:19:58;101323.55;;;3.64;100.00
25869;BME280;13688;53.154;18.136;2024-03-06T00:25:21;101325.34;;;3.63;100.00
25869;BME280;13688;53.154;18.136;2024-03-06T00:30:44;101325.34;;;3.63;100.00
25869;BME280;13688;53.154;18.136;2024-03-06T00:36:07;101320.89;;;3.64;100.00
25869;BME280;13688;53.154;18.136;2024-03-06T00:41:29;101330.59;;;3.65;100.00
25869;BME280;13688;53.154;18.136;2024-03-06T00:46:51;101334.89;;;3.69;100.00
25869;BME280;13688;53.154;18.136;2024-03-06T00:52:14;101337.61;;;3.67;100.00
25869;BME280;13688;53.154;18.136;2024-03-06T00:57:37;101341.14;;;3.68;100.00
25869;BME280;13688;53.154;18.136;2024-03-06T01:02:59;101346.45;;;3.68;100.00
25869;BME280;13688;53.154;18.136;2024-03-06T01:08:22;101347.39;;;3.67;100.00
25869;BME280;13688;53.154;18.136;2024-03-06T01:13:46;101350.91;;;3.67;100.00
25869;BME280;13688;53.154;18.136;2024-03-06T01:19:09;101360.55;;;3.70;100.00
25869;BME280;13688;53.154;18.136;2024-03-06T01:24:32;101359.63;;;3.71;100.00
25869;BME280;13688;53.154;18.136;2024-03-06T01:29:54;101362.28;;;3.71;100.00
25869;BME280;13688;53.154;18.136;2024-03-06T01:35:17;101365.74;;;3.73;100.00
25869;BME280;13688;53.154;18.136;2024-03-06T01:40:42;101364.88;;;3.72;100.00
25869;BME280;13688;53.154;18.136;2024-03-06T01:46:04;101364.02;;;3.72;100.00
25869;BME280;13688;53.154;18.136;2024-03-06T01:51:26;101358.83;;;3.69;100.00
25869;BME280;13688;53.154;18.136;2024-03-06T01:56:50;101368.59;;;3.68;100.00
25869;BME280;13688;53.154;18.136;2024-03-06T02:02:14;101365.07;;;3.68;100.00
25869;BME280;13688;53.154;18.136;2024-03-06T02:07:38;101367.73;;;3.68;100.00
25869;BME280;13688;53.154;18.136;2024-03-06T02:13:03;101360.68;;;3.67;100.00
25869;BME280;13688;53.154;18.136;2024-03-06T02:18:25;101369.62;;;3.64;100.00
25869;BME280;13688;53.154;18.136;2024-03-06T02:23:49;101366.87;;;3.67;100.00
25869;BME280;13688;53.154;18.136;2024-03-06T02:29:12;101361.55;;;3.67;100.00
25869;BME280;13688;53.154;18.136;2024-03-06T02:34:35;101365.87;;;3.70;100.00
25869;BME280;13688;53.154;18.136;2024-03-06T02:39:58;101369.55;;;3.66;100.00
25869;BME280;13688;53.154;18.136;2024-03-06T02:45:21;101366.80;;;3.69;100.00
25869;BME280;13688;53.154;18.136;2024-03-06T02:50:44;101365.80;;;3.71;100.00
25869;BME280;13688;53.154;18.136;2024-03-06T02:56:06;101370.13;;;3.74;100.00
25869;BME280;13688;53.154;18.136;2024-03-06T03:01:32;101371.86;;;3.75;100.00
25869;BME280;13688;53.154;18.136;2024-03-06T03:06:55;101372.69;;;3.77;100.00
25869;BME280;13688;53.154;18.136;2024-03-06T03:12:17;101374.42;;;3.78;100.00
25869;BME280;13688;53.154;18.136;2024-03-06T03:17:40;101373.42;;;3.81;100.00
25869;BME280;13688;53.154;18.136;2024-03-06T03:23:02;101378.75;;;3.81;100.00
25869;BME280;13688;53.154;18.136;2024-03-06T03:28:26;101371.63;;;3.81;100.00
25869;BME280;13688;53.154;18.136;2024-03-06T03:33:49;101373.36;;;3.82;100.00
25869;BME280;13688;53.154;18.136;2024-03-06T03:39:12;101387.45;;;3.84;100.00
25869;BME280;13688;53.154;18.136;2024-03-06T03:44:37;101378.55;;;3.85;100.00
25869;BME280;13688;53.154;18.136;2024-03-06T03:49:59;101375.02;;;3.85;100.00
25869;BME280;13688;53.154;18.136;2024-03-06T03:55:23;101383.94;;;3.84;100.00
25869;BME280;13688;53.154;18.136;2024-03-06T04:00:46;101391.05;;;3.83;100.00
25869;BME280;13688;53.154;18.136;2024-03-06T04:06:14;101390.05;;;3.86;100.00
25869;BME280;13688;53.154;18.136;2024-03-06T04:11:33;101392.78;;;3.84;100.00
25869;BME280;13688;53.154;18.136;2024-03-06T04:16:56;101394.51;;;3.85;100.00
25869;BME280;13688;53.154;18.136;2024-03-06T04:22:19;101391.84;;;3.85;100.00
25869;BME280;13688;53.154;18.136;2024-03-06T04:27:41;101393.61;;;3.86;100.00
25869;BME280;13688;53.154;18.136;2024-03-06T04:33:04;101382.05;;;3.87;100.00
25869;BME280;13688;53.154;18.136;2024-03-06T04:38:26;101388.16;;;3.89;100.00
25869;BME280;13688;53.154;18.136;2024-03-06T04:43:49;101380.25;;;3.88;100.00
25869;BME280;13688;53.154;18.136;2024-03-06T04:49:12;101395.08;;;3.93;100.00
25869;BME280;13688;53.154;18.136;2024-03-06T04:54:35;101385.38;;;3.92;100.00
25869;BME280;13688;53.154;18.136;2024-03-06T04:59:57;101394.16;;;3.94;100.00
25869;BME280;13688;53.154;18.136;2024-03-06T05:05:21;101399.47;;;3.94;100.00
25869;BME280;13688;53.154;18.136;2024-03-06T05:11:01;101402.13;;;3.94;100.00
25869;BME280;13688;53.154;18.136;2024-03-06T05:16:41;101402.97;;;3.96;100.00
25869;BME280;13688;53.154;18.136;2024-03-06T05:22:21;101407.42;;;3.96;100.00
25869;BME280;13688;53.154;18.136;2024-03-06T05:27:55;101418.00;;;3.97;100.00
25869;BME280;13688;53.154;18.136;2024-03-06T05:33:35;101423.06;;;4.03;100.00
25869;BME280;13688;53.154;18.136;2024-03-06T05:39:16;101425.48;;;4.10;100.00
25869;BME280;13688;53.154;18.136;2024-03-06T05:44:56;101433.34;;;4.13;100.00
25869;BME280;13688;53.154;18.136;2024-03-06T05:50:39;101445.55;;;4.18;100.00
25869;BME280;13688;53.154;18.136;2024-03-06T05:56:18;101448.02;;;4.23;100.00
25869;BME280;13688;53.154;18.136;2024-03-06T06:01:53;101449.58;;;4.28;100.00
25869;BME280;13688;53.154;18.136;2024-03-06T06:07:15;101467.22;;;4.31;100.00
25869;BME280;13688;53.154;18.136;2024-03-06T06:12:39;101462.69;;;4.33;100.00
25869;BME280;13688;53.154;18.136;2024-03-06T06:18:02;101455.47;;;4.37;100.00
25869;BME280;13688;53.154;18.136;2024-03-06T06:23:25;101463.25;;;4.41;100.00
25869;BME280;13688;53.154;18.136;2024-03-06T06:28:48;101475.47;;;4.47;100.00
25869;BME280;13688;53.154;18.136;2024-03-06T06:34:11;101484.25;;;4.49;100.00
25869;BME280;13688;53.154;18.136;2024-03-06T06:39:35;101490.31;;;4.52;100.00
25869;BME280;13688;53.154;18.136;2024-03-06T06:44:58;101490.28;;;4.54;100.00
25869;BME280;13688;53.154;18.136;2024-03-06T06:50:21;101494.67;;;4.55;100.00
25869;BME280;13688;53.154;18.136;2024-03-06T06:55:44;101497.20;;;4.58;100.00
25869;BME280;13688;53.154;18.136;2024-03-06T07:01:07;101490.08;;;4.58;100.00
25869;BME280;13688;53.154;18.136;2024-03-06T07:06:30;101498.06;;;4.58;100.00
25869;BME280;13688;53.154;18.136;2024-03-06T07:11:52;101498.14;;;4.57;100.00
25869;BME280;13688;53.154;18.136;2024-03-06T07:17:15;101502.46;;;4.59;100.00
25869;BME280;13688;53.154;18.136;2024-03-06T07:22:38;101512.19;;;4.60;100.00
25869;BME280;13688;53.154;18.136;2024-03-06T07:28:00;101512.12;;;4.62;100.00
25869;BME280;13688;53.154;18.136;2024-03-06T07:33:23;101518.31;;;4.63;100.00
25869;BME280;13688;53.154;18.136;2024-03-06T07:38:48;101522.73;;;4.64;100.00
25869;BME280;13688;53.154;18.136;2024-03-06T07:44:10;101534.13;;;4.67;100.00
25869;BME280;13688;53.154;18.136;2024-03-06T07:49:33;101545.71;;;4.66;100.00
25869;BME280;13688;53.154;18.136;2024-03-06T07:54:55;101540.31;;;4.68;100.00
25869;BME280;13688;53.154;18.136;2024-03-06T08:00:18;101551.77;;;4.70;100.00
25869;BME280;13688;53.154;18.136;2024-03-06T08:05:41;101554.44;;;4.70;100.00
25869;BME280;13688;53.154;18.136;2024-03-06T08:11:04;101555.20;;;4.73;100.00
25869;BME280;13688;53.154;18.136;2024-03-06T08:16:27;101565.79;;;4.75;100.00
25869;BME280;13688;53.154;18.136;2024-03-06T08:21:52;101565.22;;;4.67;100.00
25869;BME280;13688;53.154;18.136;2024-03-06T08:27:15;101576.01;;;4.64;100.00
25869;BME280;13688;53.154;18.136;2024-03-06T08:32:38;101579.54;;;4.64;100.00
25869;BME280;13688;53.154;18.136;2024-03-06T08:38:02;101579.48;;;4.66;100.00
25869;BME280;13688;53.154;18.136;2024-03-06T08:43:24;101586.34;;;4.71;100.00
25869;BME280;13688;53.154;18.136;2024-03-06T08:48:47;101585.11;;;4.80;100.00
25869;BME280;13688;53.154;18.136;2024-03-06T08:54:13;101585.80;;;4.85;100.00
25869;BME280;13688;53.154;18.136;2024-03-06T08:59:36;101587.17;;;4.95;100.00
25869;BME280;13688;53.154;18.136;2024-03-06T09:05:00;101594.23;;;4.96;100.00
25869;BME280;13688;53.154;18.136;2024-03-06T09:10:23;101583.06;;;5.08;100.00
25869;BME280;13688;53.154;18.136;2024-03-06T09:15:46;101585.10;;;5.24;100.00
25869;BME280;13688;53.154;18.136;2024-03-06T09:21:09;101592.59;;;5.56;100.00
25869;BME280;13688;53.154;18.136;2024-03-06T09:26:32;101586.14;;;5.82;100.00
25869;BME280;13688;53.154;18.136;2024-03-06T09:31:55;101583.06;;;6.12;100.00
25869;BME280;13688;53.154;18.136;2024-03-06T09:37:18;101578.53;;;6.33;100.00
25869;BME280;13688;53.154;18.136;2024-03-06T09:42:41;101584.98;;;6.47;100.00
25869;BME280;13688;53.154;18.136;2024-03-06T09:48:04;101572.25;;;6.52;100.00
25869;BME280;13688;53.154;18.136;2024-03-06T09:53:28;101574.84;;;6.54;100.00
25869;BME280;13688;53.154;18.136;2024-03-06T09:58:51;101564.39;;;6.49;100.00
25869;BME280;13688;53.154;18.136;2024-03-06T10:04:19;101578.70;;;6.48;100.00
25869;BME280;13688;53.154;18.136;2024-03-06T10:09:43;101575.16;;;6.48;100.00
25869;BME280;13688;53.154;18.136;2024-03-06T10:15:14;101581.88;;;6.56;100.00
25869;BME280;13688;53.154;18.136;2024-03-06T10:20:40;101591.46;;;6.42;100.00
25869;BME280;13688;53.154;18.136;2024-03-06T10:26:03;101595.44;;;6.52;100.00
25869;BME280;13688;53.154;18.136;2024-03-06T10:31:32;101605.95;;;6.36;100.00
25869;BME280;13688;53.154;18.136;2024-03-06T10:36:57;101602.57;;;6.33;100.00
25869;BME280;13688;53.154;18.136;2024-03-06T10:42:21;101609.30;;;6.41;100.00
25869;BME280;13688;53.154;18.136;2024-03-06T10:47:46;101620.48;;;6.30;100.00
25869;BME280;13688;53.154;18.136;2024-03-06T10:53:12;101610.06;;;6.24;100.00
25869;BME280;13688;53.154;18.136;2024-03-06T10:58:39;101624.36;;;6.23;100.00
25869;BME280;13688;53.154;18.136;2024-03-06T11:04:03;101628.98;;;6.20;100.00
25869;BME280;13688;53.154;18.136;2024-03-06T11:09:28;101635.26;;;6.19;100.00
25869;BME280;13688;53.154;18.136;2024-03-06T11:14:52;101637.97;;;6.17;100.00
25869;BME280;13688;53.154;18.136;2024-03-06T11:20:21;101643.05;;;6.23;100.00
25869;BME280;13688;53.154;18.136;2024-03-06T11:25:55;101642.98;;;6.25;100.00
25869;BME280;13688;53.154;18.136;2024-03-06T11:31:22;101644.66;;;6.27;100.00
25869;BME280;13688;53.154;18.136;2024-03-06T11:36:46;101656.40;;;6.23;100.00
25869;BME280;13688;53.154;18.136;2024-03-06T11:42:11;101649.52;;;6.38;100.00
25869;BME280;13688;53.154;18.136;2024-03-06T11:47:42;101655.52;;;6.62;100.00
25869;BME280;13688;53.154;18.136;2024-03-06T11:53:14;101658.63;;;6.72;100.00
25869;BME280;13688;53.154;18.136;2024-03-06T11:58:38;101672.94;;;6.71;100.00
25869;BME280;13688;53.154;18.136;2024-03-06T12:04:01;101682.39;;;6.59;100.00
25869;BME280;13688;53.154;18.136;2024-03-06T12:09:24;101685.78;;;6.63;100.00
25869;BME280;13688;53.154;18.136;2024-03-06T12:14:57;101691.05;;;6.64;100.00
25869;BME280;13688;53.154;18.136;2024-03-06T12:20:23;101694.32;;;6.71;100.00
25869;BME280;13688;53.154;18.136;2024-03-06T12:25:46;101695.34;;;6.68;100.00
25869;BME280;13688;53.154;18.136;2024-03-06T12:31:22;101697.27;;;6.65;100.00
25869;BME280;13688;53.154;18.136;2024-03-06T12:36:45;101697.94;;;6.70;100.00
25869;BME280;13688;53.154;18.136;2024-03-06T12:42:07;101692.73;;;6.67;100.00
25869;BME280;13688;53.154;18.136;2024-03-06T12:47:34;101701.91;;;6.80;100.00
25869;BME280;13688;53.154;18.136;2024-03-06T12:53:00;101708.48;;;6.73;100.00
25869;BME280;13688;53.154;18.136;2024-03-06T12:58:23;101705.61;;;6.77;100.00
25869;BME280;13688;53.154;18.136;2024-03-06T13:03:45;101702.55;;;6.85;100.00
25869;BME280;13688;53.154;18.136;2024-03-06T13:09:11;101712.27;;;6.87;100.00
25869;BME280;13688;53.154;18.136;2024-03-06T13:14:35;101712.90;;;6.93;100.00
25869;BME280;13688;53.154;18.136;2024-03-06T13:19:58;101719.19;;;6.92;100.00
25869;BME280;13688;53.154;18.136;2024-03-06T13:25:33;101710.66;;;7.02;100.00
25869;BME280;13688;53.154;18.136;2024-03-06T13:30:56;101717.03;;;7.00;100.00
25869;BME280;13688;53.154;18.136;2024-03-06T13:36:19;101716.16;;;6.99;100.00
25869;BME280;13688;53.154;18.136;2024-03-06T13:41:42;101720.29;;;7.06;100.00
25869;BME280;13688;53.154;18.136;2024-03-06T13:47:04;101717.30;;;7.12;100.00
25869;BME280;13688;53.154;18.136;2024-03-06T13:52:32;101723.52;;;7.13;100.00
25869;BME280;13688;53.154;18.136;2024-03-06T13:57:55;101719.47;;;7.23;100.00
25869;BME280;13688;53.154;18.136;2024-03-06T14:03:18;101724.34;;;7.15;100.00
25869;BME280;13688;53.154;18.136;2024-03-06T14:08:44;101725.56;;;7.08;100.00
25869;BME280;13688;53.154;18.136;2024-03-06T14:14:06;101719.45;;;7.42;100.00
25869;BME280;13688;53.154;18.136;2024-03-06T14:19:29;101714.48;;;8.57;100.00
25869;BME280;13688;53.154;18.136;2024-03-06T14:24:52;101708.13;;;9.86;100.00
25869;BME280;13688;53.154;18.136;2024-03-06T14:30:15;101703.41;;;10.64;100.00
25869;BME280;13688;53.154;18.136;2024-03-06T14:35:38;101702.61;;;11.04;100.00
25869;BME280;13688;53.154;18.136;2024-03-06T14:41:00;101708.98;;;11.71;100.00
25869;BME280;13688;53.154;18.136;2024-03-06T14:46:23;101712.42;;;11.73;100.00
25869;BME280;13688;53.154;18.136;2024-03-06T14:51:45;101713.28;;;11.74;100.00
25869;BME280;13688;53.154;18.136;2024-03-06T14:57:08;101709.84;;;11.72;100.00
25869;BME280;13688;53.154;18.136;2024-03-06T15:02:33;101714.22;;;11.60;100.00
25869;BME280;13688;53.154;18.136;2024-03-06T15:07:56;101709.72;;;11.88;100.00
25869;BME280;13688;53.154;18.136;2024-03-06T15:13:19;101726.97;;;11.71;100.00
25869;BME280;13688;53.154;18.136;2024-03-06T15:18:43;101729.48;;;11.33;100.00
25869;BME280;13688;53.154;18.136;2024-03-06T15:24:07;101730.08;;;11.24;100.00
25869;BME280;13688;53.154;18.136;2024-03-06T15:29:30;101739.70;;;10.56;100.00
25869;BME280;13688;53.154;18.136;2024-03-06T15:34:54;101748.14;;;10.20;100.00
25869;BME280;13688;53.154;18.136;2024-03-06T15:40:18;101748.33;;;10.17;100.00
25869;BME280;13688;53.154;18.136;2024-03-06T15:45:41;101757.12;;;10.05;100.00
25869;BME280;13688;53.154;18.136;2024-03-06T15:51:04;101760.13;;;10.15;100.00
25869;BME280;13688;53.154;18.136;2024-03-06T15:56:26;101756.92;;;9.62;100.00
25869;BME280;13688;53.154;18.136;2024-03-06T16:01:49;101765.68;;;9.50;100.00
25869;BME280;13688;53.154;18.136;2024-03-06T16:07:12;101768.25;;;9.36;100.00
25869;BME280;13688;53.154;18.136;2024-03-06T16:12:36;101774.87;;;8.97;100.00
25869;BME280;13688;53.154;18.136;2024-03-06T16:17:58;101768.91;;;8.59;100.00
25869;BME280;13688;53.154;18.136;2024-03-06T16:23:22;101780.62;;;8.22;100.00
25869;BME280;13688;53.154;18.136;2024-03-06T16:28:45;101792.34;;;7.66;100.00
25869;BME280;13688;53.154;18.136;2024-03-06T16:34:08;101800.59;;;7.05;100.00
25869;BME280;13688;53.154;18.136;2024-03-06T16:39:33;101793.55;;;6.43;100.00
25869;BME280;13688;53.154;18.136;2024-03-06T16:44:57;101805.78;;;5.84;100.00
25869;BME280;13688;53.154;18.136;2024-03-06T16:50:21;101812.06;;;5.38;100.00
25869;BME280;13688;53.154;18.136;2024-03-06T16:55:43;101825.91;;;5.01;100.00
25869;BME280;13688;53.154;18.136;2024-03-06T17:01:06;101833.49;;;4.63;100.00
25869;BME280;13688;53.154;18.136;2024-03-06T17:06:28;101841.80;;;4.29;100.00
25869;BME280;13688;53.154;18.136;2024-03-06T17:11:51;101841.59;;;4.09;100.00
25869;BME280;13688;53.154;18.136;2024-03-06T17:17:13;101850.30;;;3.86;100.00
25869;BME280;13688;53.154;18.136;2024-03-06T17:22:36;101852.88;;;3.61;100.00
25869;BME280;13688;53.154;18.136;2024-03-06T17:28:00;101857.17;;;3.35;100.00
25869;BME280;13688;53.154;18.136;2024-03-06T17:33:23;101860.30;;;3.20;100.00
25869;BME280;13688;53.154;18.136;2024-03-06T17:38:45;101860.67;;;3.06;100.00
25869;BME280;13688;53.154;18.136;2024-03-06T17:44:09;101861.03;;;2.94;100.00
25869;BME280;13688;53.154;18.136;2024-03-06T17:49:32;101866.17;;;2.68;100.00
25869;BME280;13688;53.154;18.136;2024-03-06T17:54:55;101871.09;;;2.49;100.00
25869;BME280;13688;53.154;18.136;2024-03-06T18:00:20;101868.91;;;2.30;100.00
25869;BME280;13688;53.154;18.136;2024-03-06T18:05:44;101878.97;;;2.18;100.00
25869;BME280;13688;53.154;18.136;2024-03-06T18:11:09;101885.45;;;2.06;100.00
25869;BME280;13688;53.154;18.136;2024-03-06T18:16:31;101885.54;;;2.01;100.00
25869;BME280;13688;53.154;18.136;2024-03-06T18:21:57;101885.53;;;2.03;100.00
25869;BME280;13688;53.154;18.136;2024-03-06T18:27:19;101892.84;;;1.92;100.00
25869;BME280;13688;53.154;18.136;2024-03-06T18:32:42;101898.47;;;1.78;100.00
25869;BME280;13688;53.154;18.136;2024-03-06T18:38:06;101901.28;;;1.70;100.00
25869;BME280;13688;53.154;18.136;2024-03-06T18:43:28;101904.84;;;1.69;100.00
25869;BME280;13688;53.154;18.136;2024-03-06T18:48:53;101913.84;;;2.01;100.00
25869;BME280;13688;53.154;18.136;2024-03-06T18:54:16;101916.45;;;2.04;100.00
25869;BME280;13688;53.154;18.136;2024-03-06T18:59:39;101931.79;;;1.90;100.00
25869;BME280;13688;53.154;18.136;2024-03-06T19:05:02;101932.19;;;1.71;100.00
25869;BME280;13688;53.154;18.136;2024-03-06T19:10:25;101927.95;;;1.64;100.00
25869;BME280;13688;53.154;18.136;2024-03-06T19:15:48;101937.92;;;1.52;100.00
25869;BME280;13688;53.154;18.136;2024-03-06T19:21:11;101947.80;;;1.45;100.00
25869;BME280;13688;53.154;18.136;2024-03-06T19:26:34;101945.30;;;1.37;100.00
25869;BME280;13688;53.154;18.136;2024-03-06T19:31:57;101950.81;;;1.27;100.00
25869;BME280;13688;53.154;18.136;2024-03-06T19:37:21;101959.88;;;1.13;100.00
25869;BME280;13688;53.154;18.136;2024-03-06T19:42:44;101947.54;;;1.12;100.00
25869;BME280;13688;53.154;18.136;2024-03-06T19:48:07;101955.94;;;1.34;100.00
25869;BME280;13688;53.154;18.136;2024-03-06T19:53:30;101963.29;;;1.65;100.00
25869;BME280;13688;53.154;18.136;2024-03-06T19:58:53;101966.86;;;2.03;100.00
25869;BME280;13688;53.154;18.136;2024-03-06T20:04:18;101977.01;;;2.24;100.00
25869;BME280;13688;53.154;18.136;2024-03-06T20:09:42;101989.20;;;2.33;100.00
25869;BME280;13688;53.154;18.136;2024-03-06T20:15:05;101993.72;;;2.27;100.00
25869;BME280;13688;53.154;18.136;2024-03-06T20:20:28;101992.06;;;2.23;100.00
25869;BME280;13688;53.154;18.136;2024-03-06T20:25:53;101999.36;;;2.14;100.00
25869;BME280;13688;53.154;18.136;2024-03-06T20:31:17;102004.23;;;1.92;100.00
25869;BME280;13688;53.154;18.136;2024-03-06T20:36:40;102009.27;;;1.62;100.00
25869;BME280;13688;53.154;18.136;2024-03-06T20:42:03;102010.60;;;1.40;100.00
25869;BME280;13688;53.154;18.136;2024-03-06T20:47:26;102015.38;;;1.21;100.00
25869;BME280;13688;53.154;18.136;2024-03-06T20:53:01;102017.22;;;1.18;100.00
25869;BME280;13688;53.154;18.136;2024-03-06T20:58:26;102020.13;;;1.02;100.00
25869;BME280;13688;53.154;18.136;2024-03-06T21:03:48;102022.92;;;0.93;100.00
25869;BME280;13688;53.154;18.136;2024-03-06T21:09:11;102033.52;;;0.93;100.00
25869;BME280;13688;53.154;18.136;2024-03-06T21:14:34;102023.80;;;0.94;100.00
25869;BME280;13688;53.154;18.136;2024-03-06T21:19:56;102024.77;;;0.90;100.00
25869;BME280;13688;53.154;18.136;2024-03-06T21:25:22;102031.87;;;0.86;100.00
25869;BME280;13688;53.154;18.136;2024-03-06T21:30:44;102038.24;;;0.74;100.00
25869;BME280;13688;53.154;18.136;2024-03-06T21:36:08;102037.48;;;0.66;100.00
25869;BME280;13688;53.154;18.136;2024-03-06T21:41:30;102035.85;;;0.57;100.00
25869;BME280;13688;53.154;18.136;2024-03-06T21:46:55;102038.56;;;0.54;100.00
25869;BME280;13688;53.154;18.136;2024-03-06T21:52:18;102042.19;;;0.49;100.00
25869;BME280;13688;53.154;18.136;2024-03-06T21:57:40;102041.37;;;0.44;100.00
25869;BME280;13688;53.154;18.136;2024-03-06T22:03:03;102042.08;;;0.55;100.00
25869;BME280;13688;53.154;18.136;2024-03-06T22:08:25;102043.09;;;0.46;100.00
25869;BME280;13688;53.154;18.136;2024-03-06T22:13:48;102046.77;;;0.36;100.00
25869;BME280;13688;53.154;18.136;2024-03-06T22:19:12;102046.92;;;0.25;100.00
25869;BME280;13688;53.154;18.136;2024-03-06T22:24:35;102054.88;;;0.24;100.00
25869;BME280;13688;53.154;18.136;2024-03-06T22:29:57;102047.89;;;0.18;100.00
25869;BME280;13688;53.154;18.136;2024-03-06T22:35:22;102050.66;;;0.11;100.00
25869;BME280;13688;53.154;18.136;2024-03-06T22:40:44;102055.17;;;0.03;100.00
25869;BME280;13688;53.154;18.136;2024-03-06T22:46:06;102063.14;;;-0.02;100.00
25869;BME280;13688;53.154;18.136;2024-03-06T22:51:29;102060.55;;;-0.05;100.00
25869;BME280;13688;53.154;18.136;2024-03-06T22:56:51;102066.73;;;-0.06;100.00
25869;BME280;13688;53.154;18.136;2024-03-06T23:02:14;102066.77;;;-0.11;100.00
25869;BME280;13688;53.154;18.136;2024-03-06T23:07:38;102065.03;;;-0.12;100.00
25869;BME280;13688;53.154;18.136;2024-03-06T23:13:01;102066.66;;;-0.02;100.00
25869;BME280;13688;53.154;18.136;2024-03-06T23:18:27;102071.95;;;-0.02;100.00
25869;BME280;13688;53.154;18.136;2024-03-06T23:23:50;102072.02;;;-0.06;100.00
25869;BME280;13688;53.154;18.136;2024-03-06T23:29:13;102079.09;;;-0.10;100.00
25869;BME280;13688;53.154;18.136;2024-03-06T23:34:36;102076.52;;;-0.14;100.00
25869;BME280;13688;53.154;18.136;2024-03-06T23:40:06;102078.38;;;-0.22;100.00
25869;BME280;13688;53.154;18.136;2024-03-06T23:45:26;102088.14;;;-0.27;100.00
25869;BME280;13688;53.154;18.136;2024-03-06T23:50:48;102087.27;;;-0.28;100.00
25869;BME280;13688;53.154;18.136;2024-03-06T23:56:11;102089.12;;;-0.39;100.00
